Time;durP1;ratioP1;P1;durP2;ratioP2;P2;SDS_P1;SDS_P2;PMS_P1;PMS_P2;Temp;Humidity;BMP_temperature;BMP_pressure;BME280_temperature;BME280_humidity;BME280_pressure;Samples;Min_cycle;Max_cycle;Signal;HPM_P1;HPM_P2
2022/02/26 00:03:17;;;;;;;37.30;16.50;;;;;;;1.32;62.96;99205.89;432976;1269;96876;-40
2022/02/26 00:13:24;;;;;;;37.40;16.80;;;;;;;1.32;63.01;99221.89;432370;1270;96867;-41
2022/02/26 00:23:32;;;;;;;32.50;13.60;;;;;;;1.33;63.09;99229.92;432923;1270;109738;-40
2022/02/26 00:33:39;;;;;;;32.80;13.90;;;;;;;1.36;63.26;99237.89;432380;1270;108906;-41
2022/02/26 00:43:46;;;;;;;33.20;14.10;;;;;;;1.40;63.33;99250.58;432922;1270;108839;-41
2022/02/26 00:53:54;;;;;;;38.20;13.50;;;;;;;1.41;63.35;99254.77;432436;1270;95321;-43
2022/02/26 01:04:02;;;;;;;23.60;10.20;;;;;;;1.48;63.44;99260.70;432803;1270;96048;-41
2022/02/26 01:14:09;;;;;;;24.80;10.40;;;;;;;1.59;63.53;99263.02;432409;1270;109550;-42
2022/02/26 01:24:17;;;;;;;32.10;14.70;;;;;;;1.64;63.68;99265.11;432341;1270;109181;-44
2022/02/26 01:34:24;;;;;;;36.80;15.30;;;;;;;1.53;63.70;99270.20;432285;1270;108680;-41
2022/02/26 01:44:36;;;;;;;32.30;13.20;;;;;;;1.41;63.88;99273.01;432946;1270;96103;-41
2022/02/26 01:54:47;;;;;;;35.20;15.30;;;;;;;1.18;64.03;99278.86;432359;1270;95658;-41
2022/02/26 02:04:54;;;;;;;35.70;14.70;;;;;;;0.96;64.15;99276.48;432388;1270;109773;-41
2022/02/26 02:15:01;;;;;;;57.90;24.40;;;;;;;0.74;64.21;99275.73;432389;1270;108397;-40
2022/02/26 02:25:11;;;;;;;46.10;20.30;;;;;;;0.61;64.47;99279.14;432441;1271;108833;-42
2022/02/26 02:35:33;;;;;;;42.70;17.60;;;;;;;0.59;64.74;99288.89;432935;1270;97813;-44
2022/02/26 02:45:40;;;;;;;43.90;17.40;;;;;;;0.70;65.05;99302.73;432977;1268;96660;-41
2022/02/26 02:55:45;;;;;;;27.90;12.90;;;;;;;0.79;65.08;99306.71;432471;1269;108326;-42
2022/02/26 03:05:53;;;;;;;28.30;12.90;;;;;;;1.01;64.98;99310.27;432504;1270;109781;-42
2022/02/26 03:16:00;;;;;;;42.40;17.20;;;;;;;1.04;64.95;99311.86;432510;1270;97500;-40
2022/02/26 03:26:09;;;;;;;46.20;21.60;;;;;;;0.94;64.97;99322.69;433000;1270;111036;-42
2022/02/26 03:36:17;;;;;;;42.80;20.50;;;;;;;0.77;65.16;99339.34;432416;1270;108823;-41
2022/02/26 03:56:31;;;;;;;45.80;19.80;;;;;;;0.45;65.42;99360.48;432978;1270;98018;-40
2022/02/26 04:06:38;;;;;;;45.50;21.10;;;;;;;0.45;65.76;99370.84;432541;1270;111035;-41
2022/02/26 04:16:46;;;;;;;58.00;23.10;;;;;;;0.51;65.96;99381.02;433092;1269;108737;-41
2022/02/26 04:26:53;;;;;;;45.80;19.10;;;;;;;0.57;65.93;99389.81;433034;1270;109156;-41
2022/02/26 04:37:01;;;;;;;51.10;21.90;;;;;;;0.69;66.23;99402.77;432938;1270;96676;-41
2022/02/26 04:47:09;;;;;;;40.50;19.40;;;;;;;0.84;66.24;99411.02;432427;1270;111355;-43
2022/02/26 04:57:17;;;;;;;31.80;17.90;;;;;;;1.00;66.17;99423.16;432907;1270;109196;-42
2022/02/26 05:07:25;;;;;;;63.90;26.80;;;;;;;1.13;66.34;99434.07;432492;1270;98002;-41
2022/02/26 05:17:32;;;;;;;67.10;30.50;;;;;;;1.01;66.23;99457.61;432972;1269;111117;-42
2022/02/26 05:37:47;;;;;;;70.00;31.60;;;;;;;0.61;66.68;99487.30;432376;1270;109009;-40
2022/02/26 05:47:54;;;;;;;63.20;29.10;;;;;;;0.50;66.91;99501.56;433156;1270;98067;-40
2022/02/26 05:58:02;;;;;;;65.70;30.80;;;;;;;0.41;66.94;99510.55;432651;1270;110375;-41
2022/02/26 06:08:09;;;;;;;50.60;24.70;;;;;;;0.35;67.25;99527.39;432937;1270;107747;-44
2022/02/26 06:18:17;;;;;;;42.20;20.20;;;;;;;0.49;67.44;99549.82;432489;1270;109024;-41
2022/02/26 06:28:24;;;;;;;43.20;20.00;;;;;;;0.82;67.41;99572.29;432921;1271;97539;-41
2022/02/26 06:38:31;;;;;;;50.40;23.80;;;;;;;1.11;67.60;99579.54;432360;1270;108735;-40
2022/02/26 06:48:37;;;;;;;43.50;20.00;;;;;;;1.44;67.73;99577.14;432686;1269;108265;-42
2022/02/26 06:58:44;;;;;;;40.70;16.40;;;;;;;1.68;67.82;99587.64;432474;1269;97538;-39
2022/02/26 07:08:51;;;;;;;32.30;15.50;;;;;;;1.76;68.17;99608.95;432518;1269;110994;-41
2022/02/26 07:18:58;;;;;;;27.60;14.00;;;;;;;1.76;68.33;99627.99;432396;1271;108866;-41
2022/02/26 07:39:11;;;;;;;20.60;11.20;;;;;;;2.15;68.79;99654.27;432519;1270;97850;-41
2022/02/26 07:49:19;;;;;;;25.10;12.40;;;;;;;2.35;69.12;99667.13;432738;1269;108931;-43
2022/02/26 07:59:26;;;;;;;37.90;14.50;;;;;;;2.29;69.29;99679.02;432507;1270;97932;-40
2022/02/26 08:09:33;;;;;;;41.00;17.40;;;;;;;2.28;69.53;99691.48;432397;1271;97946;-42
2022/02/26 08:19:41;;;;;;;30.60;16.70;;;;;;;2.33;69.82;99696.90;432451;1270;111082;-41
2022/02/26 08:29:49;;;;;;;20.90;11.60;;;;;;;2.40;69.93;99713.72;432850;1269;108756;-43
2022/02/26 08:39:56;;;;;;;24.30;12.50;;;;;;;2.47;70.04;99726.48;432557;1270;108677;-40
2022/02/26 08:50:06;;;;;;;18.60;11.70;;;;;;;2.55;70.39;99741.31;432966;1270;97894;-40
2022/02/26 09:00:14;;;;;;;26.20;14.00;;;;;;;2.54;70.64;99748.58;432501;1270;108954;-41
2022/02/26 09:10:21;;;;;;;32.10;14.60;;;;;;;2.39;70.94;99761.02;432931;1270;108717;-40
2022/02/26 09:20:29;;;;;;;27.30;14.70;;;;;;;2.39;71.18;99764.67;432509;1270;97923;-42
2022/02/26 09:30:44;;;;;;;16.90;11.00;;;;;;;2.70;71.65;99777.52;428812;1269;5649214;-41
2022/02/26 09:40:56;;;;;;;19.10;11.80;;;;;;;3.15;71.82;99789.17;432764;1270;108635;-41
2022/02/26 10:01:10;;;;;;;36.30;18.50;;;;;;;3.44;72.82;99812.77;433033;1269;108884;-41
2022/02/26 10:11:22;;;;;;;37.20;19.90;;;;;;;3.53;72.96;99816.81;432512;1270;97913;-41
2022/02/26 10:21:31;;;;;;;24.20;12.30;;;;;;;3.59;72.98;99821.66;433092;1269;97493;-43
2022/02/26 10:31:45;;;;;;;14.00;9.10;;;;;;;4.04;72.75;99828.56;433040;1270;111139;-41
2022/02/26 10:41:52;;;;;;;14.20;9.30;;;;;;;4.43;72.48;99839.35;433174;1270;108763;-42
2022/02/26 10:52:07;;;;;;;15.60;9.30;;;;;;;4.80;72.14;99849.00;432416;1270;97894;-41
2022/02/26 11:12:27;;;;;;;15.00;8.60;;;;;;;5.42;70.97;99849.50;432582;1270;110012;-42
2022/02/26 11:22:36;;;;;;;8.00;5.90;;;;;;;5.57;69.94;99846.09;432510;1270;109360;-42
2022/02/26 11:32:46;;;;;;;11.20;6.80;;;;;;;5.87;69.37;99839.70;432810;1269;108804;-43
2022/02/26 11:42:55;;;;;;;12.30;7.40;;;;;;;5.91;68.79;99839.58;432784;1269;97883;-41
2022/02/26 11:53:03;;;;;;;17.50;9.60;;;;;;;5.80;68.18;99837.73;432413;1271;111242;-40
2022/02/26 12:03:27;;;;;;;16.60;9.20;;;;;;;5.53;68.12;99839.90;432574;1270;107997;-43
2022/02/26 12:13:37;;;;;;;15.90;10.50;;;;;;;5.20;68.29;99847.70;432563;1270;97929;-40
2022/02/26 12:23:42;;;;;;;18.60;11.50;;;;;;;4.87;68.56;99853.20;432557;1270;111318;-40
2022/02/26 12:33:50;;;;;;;24.70;14.70;;;;;;;4.67;68.61;99859.00;432339;1271;108843;-42
2022/02/26 12:43:56;;;;;;;29.10;15.50;;;;;;;4.58;68.75;99867.02;432314;1269;108848;-41
2022/02/26 12:54:03;;;;;;;17.10;10.10;;;;;;;4.52;68.93;99865.40;432400;1270;97907;-41
2022/02/26 13:24:26;;;;;;;33.10;20.20;;;;;;;4.36;69.52;99875.17;432444;1270;97491;-43
2022/02/26 13:34:33;;;;;;;30.60;17.10;;;;;;;4.32;69.63;99878.34;432335;1271;111176;-41
2022/02/26 13:44:40;;;;;;;33.00;19.80;;;;;;;4.32;69.62;99879.42;432357;1270;108926;-41
2022/02/26 13:54:50;;;;;;;24.20;12.60;;;;;;;4.30;69.65;99877.72;432346;1270;109576;-40
2022/02/26 14:04:57;;;;;;;21.00;13.40;;;;;;;4.39;69.58;99886.38;432281;1270;97903;-42
2022/02/26 14:25:13;;;;;;;19.40;10.70;;;;;;;4.54;69.59;99904.57;432323;1270;97409;-44
2022/02/26 14:35:23;;;;;;;20.30;10.60;;;;;;;4.51;69.51;99903.63;432341;1270;111233;-41
2022/02/26 14:55:36;;;;;;;19.10;10.40;;;;;;;4.38;69.24;99917.17;433369;1268;108603;-40
2022/02/26 15:05:44;;;;;;;21.70;12.60;;;;;;;4.32;68.96;99927.92;433322;1268;97971;-39
2022/02/26 15:15:51;;;;;;;22.80;12.60;;;;;;;4.27;68.87;99933.17;433258;1268;111103;-41
2022/02/26 15:25:58;;;;;;;14.50;9.50;;;;;;;4.23;68.73;99949.80;433426;1268;108893;-41
2022/02/26 15:36:05;;;;;;;18.50;9.70;;;;;;;4.23;68.89;99964.98;433685;1268;98000;-42
2022/02/26 15:46:12;;;;;;;20.70;11.70;;;;;;;4.14;69.02;99977.22;433353;1268;111283;-41
2022/02/26 15:56:20;;;;;;;35.00;16.50;;;;;;;3.95;69.21;99989.77;433446;1268;107450;-41
2022/02/26 16:06:27;;;;;;;22.60;12.50;;;;;;;3.81;69.29;100010.95;433356;1268;109294;-41
2022/02/26 16:16:41;;;;;;;29.20;14.90;;;;;;;3.65;69.24;100024.21;433525;1268;97512;-40
2022/02/26 16:26:49;;;;;;;55.50;23.80;;;;;;;3.46;69.34;100036.01;433731;1268;110752;-40
2022/02/26 16:36:57;;;;;;;15.70;10.00;;;;;;;3.33;69.52;100055.55;433203;1268;109110;-41
2022/02/26 16:47:03;;;;;;;16.80;9.50;;;;;;;3.28;69.66;100070.30;433431;1268;97922;-41
2022/02/26 16:57:08;;;;;;;45.80;23.60;;;;;;;3.17;69.71;100084.34;433415;1268;111100;-41
2022/02/26 17:07:15;;;;;;;38.80;22.70;;;;;;;2.96;69.94;100091.04;433259;1268;108917;-40
2022/02/26 17:17:23;;;;;;;55.80;28.90;;;;;;;2.66;70.18;100095.27;433412;1268;108940;-40
2022/02/26 17:27:29;;;;;;;36.80;20.40;;;;;;;2.35;70.38;100102.29;433362;1268;98573;-40
2022/02/26 17:37:34;;;;;;;41.00;21.10;;;;;;;2.06;70.49;100114.75;433331;1268;111145;-41
2022/02/26 17:47:42;;;;;;;50.70;28.70;;;;;;;1.84;70.73;100128.99;433356;1268;108794;-41
2022/02/26 17:57:49;;;;;;;22.40;14.20;;;;;;;1.75;70.77;100145.47;433075;1268;97920;-42
2022/02/26 18:07:56;;;;;;;68.80;33.10;;;;;;;1.81;71.31;100151.56;433523;1268;111226;-43
2022/02/26 18:18:02;;;;;;;79.40;39.80;;;;;;;1.69;71.38;100164.14;433287;1268;108882;-41
2022/02/26 18:28:10;;;;;;;72.30;36.70;;;;;;;1.53;71.68;100180.59;433644;1268;109342;-43
2022/02/26 18:48:24;;;;;;;74.10;42.30;;;;;;;1.18;71.88;100208.46;432994;1268;98168;-41
2022/02/26 18:58:30;;;;;;;115.80;63.50;;;;;;;1.14;71.99;100213.14;433482;1268;110992;-42
2022/02/26 19:08:38;;;;;;;99.20;47.20;;;;;;;1.17;72.39;100216.07;433068;1267;109386;-41
2022/02/26 19:18:46;;;;;;;94.70;44.30;;;;;;;1.12;72.53;100229.83;433362;1268;98576;-40
2022/02/26 19:28:54;;;;;;;105.80;47.50;;;;;;;0.88;72.66;100231.90;433488;1268;110886;-41
2022/02/26 19:39:01;;;;;;;94.70;42.80;;;;;;;0.55;72.75;100232.00;432998;1270;108891;-40
2022/02/26 19:59:15;;;;;;;84.10;40.30;;;;;;;0.00;73.26;100237.37;433143;1269;97900;-42
2022/02/26 20:09:24;;;;;;;91.70;45.40;;;;;;;-0.04;73.28;100241.15;433381;1268;108855;-42
2022/02/26 20:39:44;;;;;;;174.80;79.00;;;;;;;-0.39;73.36;100235.43;433225;1270;108851;-41
2022/02/26 20:49:52;;;;;;;170.90;75.80;;;;;;;-0.66;73.64;100232.19;433668;1268;109081;-41
2022/02/26 21:00:03;;;;;;;159.20;73.50;;;;;;;-0.80;73.89;100227.60;433006;1270;96674;-44
2022/02/26 21:10:12;;;;;;;118.50;62.80;;;;;;;-0.92;73.97;100229.95;433580;1268;109614;-41
2022/02/26 21:20:19;;;;;;;137.80;61.90;;;;;;;-0.96;73.92;100238.14;433078;1268;108550;-42
2022/02/26 21:30:26;;;;;;;115.20;55.90;;;;;;;-0.94;74.03;100240.59;429227;1268;5662221;-41
2022/02/26 21:40:34;;;;;;;154.10;72.00;;;;;;;-0.88;74.28;100243.25;433352;1268;111076;-44
2022/02/26 21:50:40;;;;;;;180.60;78.70;;;;;;;-1.04;74.09;100261.83;433580;1268;108807;-40
2022/02/26 22:00:47;;;;;;;168.50;73.30;;;;;;;-1.27;74.22;100265.06;433345;1268;108675;-43
2022/02/26 22:10:55;;;;;;;152.50;69.00;;;;;;;-1.46;74.33;100263.05;433376;1268;97347;-40
2022/02/26 22:31:08;;;;;;;122.00;59.40;;;;;;;-1.56;74.67;100264.85;433286;1268;108848;-39
2022/02/26 22:41:15;;;;;;;141.80;65.00;;;;;;;-1.39;74.99;100280.04;433278;1268;98690;-41
2022/02/26 22:51:25;;;;;;;172.70;76.90;;;;;;;-1.31;75.02;100290.33;433496;1268;108883;-43
2022/02/26 23:01:32;;;;;;;195.70;76.70;;;;;;;-1.32;75.03;100298.55;433491;1268;96606;-40
2022/02/26 23:11:39;;;;;;;201.30;77.70;;;;;;;-1.52;75.00;100308.48;433377;1268;97986;-44
2022/02/26 23:21:47;;;;;;;195.80;80.10;;;;;;;-1.70;75.24;100323.40;433437;1268;111065;-42
2022/02/26 23:31:54;;;;;;;232.50;89.60;;;;;;;-1.86;75.27;100333.59;433152;1268;107365;-41
2022/02/26 23:42:01;;;;;;;171.30;77.10;;;;;;;-1.90;75.28;100336.05;433575;1268;97907;-41
2022/02/26 23:52:09;;;;;;;165.90;72.30;;;;;;;-1.75;75.68;100342.10;432899;1270;110960;-39
